createdAt,value
2018-12-21T00:02:57.122Z,6.20
2018-12-21T00:05:23.323Z,6.30
2018-12-21T00:07:49.544Z,6.30
2018-12-21T00:10:15.859Z,6.30
2018-12-21T00:12:41.928Z,6.40
2018-12-21T00:15:08.233Z,6.40
2018-12-21T00:17:34.937Z,6.40
2018-12-21T00:20:01.264Z,6.50
2018-12-21T00:22:27.482Z,6.50
2018-12-21T00:24:53.570Z,6.50
2018-12-21T00:27:19.710Z,6.60
2018-12-21T00:29:45.883Z,6.60
2018-12-21T00:32:18.137Z,6.60
2018-12-21T00:34:50.276Z,6.60
2018-12-21T00:37:22.679Z,6.70
2018-12-21T00:39:54.818Z,6.70
2018-12-21T00:42:23.131Z,6.80
2018-12-21T00:44:51.346Z,6.70
2018-12-21T00:47:18.072Z,6.80
2018-12-21T00:49:44.183Z,6.80
2018-12-21T00:52:10.265Z,6.80
2018-12-21T00:54:36.377Z,6.80
2018-12-21T00:57:02.822Z,6.90
2018-12-21T00:59:29.026Z,6.80
2018-12-21T01:01:55.307Z,6.80
2018-12-21T01:04:21.550Z,6.80
2018-12-21T01:06:47.745Z,6.80
2018-12-21T01:09:13.920Z,6.80
2018-12-21T01:11:40.136Z,6.90
2018-12-21T01:14:06.418Z,6.80
2018-12-21T01:16:32.597Z,6.80
2018-12-21T01:18:58.793Z,6.80
2018-12-21T01:21:24.850Z,6.80
2018-12-21T01:23:51.248Z,6.80
2018-12-21T01:26:17.346Z,6.70
2018-12-21T01:28:43.472Z,6.70
2018-12-21T01:31:09.651Z,6.70
2018-12-21T01:33:35.952Z,6.80
2018-12-21T01:36:02.252Z,6.80
2018-12-21T01:38:28.422Z,6.80
2018-12-21T01:40:54.475Z,6.90
2018-12-21T01:43:20.745Z,6.90
2018-12-21T01:45:47.054Z,6.90
2018-12-21T01:48:13.249Z,7.00
2018-12-21T01:50:39.452Z,7.00
2018-12-21T01:53:06.278Z,7.00
2018-12-21T01:55:32.525Z,7.00
2018-12-21T01:57:58.829Z,7.00
2018-12-21T02:00:25.176Z,6.90
2018-12-21T02:02:51.408Z,6.90
2018-12-21T02:05:17.608Z,6.90
2018-12-21T02:07:43.929Z,6.80
2018-12-21T02:10:10.342Z,6.80
2018-12-21T02:12:43.705Z,6.80
2018-12-21T02:15:09.901Z,6.90
2018-12-21T02:17:36.170Z,6.90
2018-12-21T02:20:03.198Z,6.90
2018-12-21T02:22:29.390Z,6.90
2018-12-21T02:24:55.581Z,6.90
2018-12-21T02:27:21.641Z,6.90
2018-12-21T02:29:47.831Z,6.90
2018-12-21T02:32:14.368Z,6.90
2018-12-21T02:34:40.494Z,6.80
2018-12-21T02:37:06.807Z,6.80
2018-12-21T02:39:33.082Z,6.80
2018-12-21T02:41:59.533Z,6.80
2018-12-21T02:44:25.731Z,6.70
2018-12-21T02:46:51.957Z,6.80
2018-12-21T02:49:18.045Z,6.80
2018-12-21T02:51:44.178Z,6.70
2018-12-21T02:54:10.274Z,6.70
2018-12-21T02:56:36.494Z,6.60
2018-12-21T02:59:02.824Z,6.70
2018-12-21T03:01:29.141Z,6.60
2018-12-21T03:03:55.210Z,6.60
2018-12-21T03:06:21.418Z,6.60
2018-12-21T03:08:47.596Z,6.60
2018-12-21T03:11:13.829Z,6.50
2018-12-21T03:13:40.015Z,6.50
2018-12-21T03:16:06.320Z,6.50
2018-12-21T03:18:32.517Z,6.40
2018-12-21T03:20:58.828Z,6.40
2018-12-21T03:23:24.909Z,6.40
2018-12-21T03:25:51.080Z,6.40
2018-12-21T03:28:17.134Z,6.30
2018-12-21T03:30:43.346Z,6.30
2018-12-21T03:33:09.560Z,6.30
2018-12-21T03:35:35.928Z,6.30
2018-12-21T03:38:02.133Z,6.20
2018-12-21T03:40:28.341Z,6.30
2018-12-21T03:42:54.406Z,6.30
2018-12-21T03:45:20.681Z,6.20
2018-12-21T03:47:46.958Z,6.30
2018-12-21T03:50:13.140Z,6.30
2018-12-21T03:52:39.332Z,6.20
2018-12-21T03:55:05.746Z,6.30
2018-12-21T03:57:32.017Z,6.30
2018-12-21T03:59:58.074Z,6.40
2018-12-21T04:02:24.171Z,6.50
2018-12-21T04:04:50.388Z,6.40
2018-12-21T04:07:16.481Z,6.40
2018-12-21T04:09:42.582Z,6.40
2018-12-21T04:12:08.806Z,6.40
2018-12-21T04:14:34.878Z,6.40
2018-12-21T04:17:00.999Z,6.40
2018-12-21T04:19:27.084Z,6.40
2018-12-21T04:21:53.312Z,6.40
2018-12-21T04:24:19.603Z,6.40
2018-12-21T04:26:45.808Z,6.50
2018-12-21T04:29:11.895Z,6.40
2018-12-21T04:31:38.201Z,6.40
2018-12-21T04:34:04.270Z,6.40
2018-12-21T04:36:30.376Z,6.40
2018-12-21T04:38:56.471Z,6.40
2018-12-21T04:41:22.556Z,6.40
2018-12-21T04:43:48.889Z,6.40
2018-12-21T04:46:15.061Z,6.40
2018-12-21T04:48:41.179Z,6.50
2018-12-21T04:51:07.471Z,6.40
2018-12-21T04:53:33.724Z,6.50
2018-12-21T04:55:59.936Z,6.50
2018-12-21T04:58:26.141Z,6.50
2018-12-21T05:00:52.343Z,6.50
2018-12-21T05:03:18.453Z,6.40
2018-12-21T05:05:44.560Z,6.50
2018-12-21T05:08:10.912Z,6.50
2018-12-21T05:10:37.533Z,6.50
2018-12-21T05:13:03.843Z,6.50
2018-12-21T05:15:30.089Z,6.50
2018-12-21T05:17:56.354Z,6.50
2018-12-21T05:20:22.806Z,6.50
2018-12-21T05:22:52.405Z,6.60
2018-12-21T05:25:17.524Z,6.60
2018-12-21T05:27:43.884Z,6.60
2018-12-21T05:30:10.092Z,6.70
2018-12-21T05:32:36.474Z,6.60
2018-12-21T05:35:03.069Z,6.60
2018-12-21T05:37:29.260Z,6.60
2018-12-21T05:39:55.460Z,6.60
2018-12-21T05:42:21.672Z,6.50
2018-12-21T05:44:47.771Z,6.60
2018-12-21T05:47:13.905Z,6.50
2018-12-21T05:49:39.964Z,6.50
2018-12-21T05:52:06.228Z,6.50
2018-12-21T05:54:32.880Z,6.50
2018-12-21T05:56:59.035Z,6.50
2018-12-21T05:59:25.224Z,6.50
2018-12-21T06:01:51.462Z,6.50
2018-12-21T06:04:17.649Z,6.50
2018-12-21T06:06:43.949Z,6.50
2018-12-21T06:09:10.051Z,6.50
2018-12-21T06:11:36.329Z,6.40
2018-12-21T06:14:02.482Z,6.50
2018-12-21T06:16:28.814Z,6.40
2018-12-21T06:18:55.722Z,6.40
2018-12-21T06:21:21.901Z,6.50
2018-12-21T06:23:48.039Z,6.50
2018-12-21T06:26:14.417Z,6.50
2018-12-21T06:28:40.535Z,6.50
2018-12-21T06:31:06.626Z,6.50
2018-12-21T06:33:32.741Z,6.50
2018-12-21T06:35:58.940Z,6.50
2018-12-21T06:38:25.043Z,6.50
2018-12-21T06:40:51.120Z,6.50
2018-12-21T06:43:17.338Z,6.50
2018-12-21T06:45:43.436Z,6.50
2018-12-21T06:48:09.760Z,6.50
2018-12-21T06:50:36.009Z,6.60
2018-12-21T06:53:02.362Z,6.60
2018-12-21T06:55:28.685Z,6.60
2018-12-21T06:57:54.899Z,6.60
2018-12-21T07:00:21.379Z,6.60
2018-12-21T07:02:47.768Z,6.70
2018-12-21T07:05:14.063Z,6.70
2018-12-21T07:07:40.369Z,6.70
2018-12-21T07:10:08.676Z,6.70
2018-12-21T07:12:34.851Z,6.80
2018-12-21T07:15:01.001Z,6.80
2018-12-21T07:17:27.221Z,6.80
2018-12-21T07:19:53.390Z,6.80
2018-12-21T07:22:19.580Z,6.80
2018-12-21T07:24:46.037Z,6.80
2018-12-21T07:27:12.165Z,6.80
2018-12-21T07:29:38.423Z,6.80
2018-12-21T07:32:04.725Z,6.90
2018-12-21T07:34:30.951Z,6.90
2018-12-21T07:36:57.047Z,7.00
2018-12-21T07:39:23.266Z,7.00
2018-12-21T07:41:49.339Z,7.00
2018-12-21T07:44:15.441Z,7.10
2018-12-21T07:46:41.539Z,7.10
2018-12-21T07:49:07.739Z,7.10
2018-12-21T07:51:33.971Z,7.10
2018-12-21T07:54:00.187Z,7.10
2018-12-21T07:56:26.365Z,7.10
2018-12-21T07:58:57.125Z,7.10
2018-12-21T08:01:20.744Z,7.20
2018-12-21T08:03:46.901Z,7.20
2018-12-21T08:06:13.002Z,7.20
2018-12-21T08:08:39.317Z,7.20
2018-12-21T08:11:05.556Z,7.20
2018-12-21T08:13:31.828Z,7.30
2018-12-21T08:15:58.035Z,7.30
2018-12-21T08:18:24.238Z,7.30
2018-12-21T08:20:50.470Z,7.40
2018-12-21T08:23:16.686Z,7.40
2018-12-21T08:25:42.890Z,7.50
2018-12-21T08:28:09.076Z,7.50
2018-12-21T08:30:35.184Z,7.60
2018-12-21T08:33:01.304Z,7.60
2018-12-21T08:35:27.531Z,7.60
2018-12-21T08:38:00.564Z,7.60
2018-12-21T08:40:26.893Z,7.60
2018-12-21T08:42:53.173Z,7.60
2018-12-21T08:45:19.415Z,7.60
2018-12-21T08:47:52.748Z,7.60
2018-12-21T08:50:19.091Z,7.70
2018-12-21T08:52:45.469Z,7.60
2018-12-21T08:55:11.989Z,7.70
2018-12-21T08:57:41.691Z,7.70
2018-12-21T09:00:09.949Z,7.90
2018-12-21T09:02:36.056Z,7.90
2018-12-21T09:05:02.654Z,7.90
2018-12-21T09:07:28.782Z,8.00
2018-12-21T09:09:54.873Z,8.10
2018-12-21T09:12:21.064Z,8.10
2018-12-21T09:14:47.410Z,8.10
2018-12-21T09:17:13.621Z,8.10
2018-12-21T09:19:39.712Z,8.30
2018-12-21T09:22:05.805Z,8.30
2018-12-21T09:24:32.008Z,8.30
2018-12-21T09:26:58.181Z,8.40
2018-12-21T09:29:24.267Z,8.50
2018-12-21T09:31:50.478Z,8.50
2018-12-21T09:34:16.609Z,8.50
2018-12-21T09:36:43.139Z,8.50
2018-12-21T09:39:09.542Z,8.50
2018-12-21T09:41:35.893Z,8.50
2018-12-21T09:44:02.006Z,8.50
2018-12-21T09:46:28.255Z,8.40
2018-12-21T09:48:54.477Z,8.50
2018-12-21T09:51:20.861Z,8.50
2018-12-21T09:53:46.976Z,8.60
2018-12-21T09:56:13.193Z,8.60
2018-12-21T09:58:39.272Z,8.70
2018-12-21T10:04:05.430Z,8.80
2018-12-21T10:06:31.516Z,8.80
2018-12-21T10:08:57.856Z,8.70
2018-12-21T10:11:24.034Z,8.60
2018-12-21T10:13:50.133Z,8.60
2018-12-21T10:16:16.309Z,8.70
2018-12-21T10:18:42.430Z,8.80
2018-12-21T10:21:08.544Z,8.80
2018-12-21T10:23:34.657Z,8.80
2018-12-21T10:26:00.771Z,8.70
2018-12-21T10:28:26.847Z,8.80
2018-12-21T10:30:53.184Z,8.50
2018-12-21T10:33:19.613Z,8.20
2018-12-21T10:35:46.075Z,8.10
2018-12-21T10:38:12.141Z,7.90
2018-12-21T10:40:38.321Z,7.60
2018-12-21T10:43:04.497Z,7.60
2018-12-21T10:45:30.702Z,7.50
2018-12-21T10:47:56.926Z,7.50
2018-12-21T10:50:23.245Z,7.40
2018-12-21T10:52:49.475Z,7.40
2018-12-21T10:55:15.908Z,7.50
2018-12-21T10:57:42.303Z,7.50
2018-12-21T11:00:09.134Z,7.60
2018-12-21T11:02:35.267Z,7.70
2018-12-21T11:05:01.801Z,7.80
2018-12-21T11:07:27.898Z,7.80
2018-12-21T11:09:53.973Z,7.90
2018-12-21T11:12:20.177Z,8.00
2018-12-21T11:14:46.290Z,8.00
2018-12-21T11:17:12.620Z,8.00
2018-12-21T11:19:38.720Z,8.00
2018-12-21T11:22:04.829Z,8.10
2018-12-21T11:24:35.417Z,8.20
2018-12-21T11:26:59.318Z,8.20
2018-12-21T11:29:25.413Z,8.10
2018-12-21T11:31:51.737Z,8.20
2018-12-21T11:34:17.850Z,8.20
2018-12-21T11:36:44.066Z,8.10
2018-12-21T11:39:10.289Z,8.00
2018-12-21T11:41:36.517Z,8.00
2018-12-21T11:44:02.858Z,8.10
2018-12-21T11:46:29.080Z,8.20
2018-12-21T11:48:55.822Z,8.20
2018-12-21T11:51:22.125Z,8.20
2018-12-21T11:53:48.209Z,8.20
2018-12-21T11:56:14.339Z,8.10
2018-12-21T11:58:40.537Z,8.00
2018-12-21T12:01:06.630Z,7.90
2018-12-21T12:03:32.784Z,7.80
2018-12-21T12:05:58.991Z,7.80
2018-12-21T12:08:26.067Z,7.90
2018-12-21T12:10:52.141Z,7.90
2018-12-21T12:13:18.243Z,7.80
2018-12-21T12:15:44.349Z,7.70
2018-12-21T12:18:10.639Z,7.60
2018-12-21T12:20:36.940Z,7.70
2018-12-21T12:23:03.462Z,7.70
2018-12-21T12:25:29.767Z,7.70
2018-12-21T12:27:56.009Z,7.70
2018-12-21T12:30:22.195Z,7.70
2018-12-21T12:32:48.317Z,7.60
2018-12-21T12:35:14.622Z,7.60
2018-12-21T12:37:40.740Z,7.60
2018-12-21T12:40:07.222Z,7.60
2018-12-21T12:42:33.625Z,7.50
2018-12-21T12:44:59.852Z,7.70
2018-12-21T12:47:26.085Z,7.50
2018-12-21T12:49:52.337Z,7.50
2018-12-21T12:52:18.633Z,7.40
2018-12-21T12:54:44.839Z,7.30
2018-12-21T12:57:11.070Z,7.10
2018-12-21T12:59:37.178Z,7.10
2018-12-21T13:02:03.473Z,7.10
2018-12-21T13:04:29.606Z,7.00
2018-12-21T13:06:55.770Z,7.00
2018-12-21T13:09:21.964Z,7.00
2018-12-21T13:11:49.557Z,7.00
2018-12-21T13:14:16.611Z,7.00
2018-12-21T13:16:44.819Z,7.00
2018-12-21T13:19:11.177Z,7.00
2018-12-21T13:21:37.624Z,7.00
2018-12-21T13:24:03.765Z,7.00
2018-12-21T13:26:29.944Z,7.00
2018-12-21T13:28:56.116Z,6.90
2018-12-21T13:31:22.686Z,7.00
2018-12-21T13:33:48.798Z,7.10
2018-12-21T13:36:14.986Z,7.10
2018-12-21T13:38:41.987Z,7.20
2018-12-21T13:41:08.458Z,7.20
2018-12-21T13:43:35.791Z,7.30
2018-12-21T13:46:02.044Z,7.30
2018-12-21T13:48:28.462Z,7.40
2018-12-21T13:50:54.582Z,7.40
2018-12-21T13:53:20.822Z,7.50
2018-12-21T13:55:47.905Z,7.50
2018-12-21T13:58:15.283Z,7.60
2018-12-21T14:00:41.495Z,7.60
2018-12-21T14:03:08.313Z,7.70
2018-12-21T14:05:34.487Z,7.70
2018-12-21T14:08:01.931Z,7.80
2018-12-21T14:10:28.931Z,7.70
2018-12-21T14:12:56.566Z,7.70
2018-12-21T14:15:24.624Z,7.80
2018-12-21T14:17:51.309Z,7.80
2018-12-21T14:20:18.487Z,7.90
2018-12-21T14:22:45.622Z,7.90
2018-12-21T14:25:12.169Z,7.90
2018-12-21T14:27:39.378Z,8.00
2018-12-21T14:30:07.013Z,8.10
2018-12-21T14:32:33.277Z,8.10
2018-12-21T14:35:00.782Z,8.00
2018-12-21T14:37:26.858Z,8.00
2018-12-21T14:39:53.170Z,7.80
2018-12-21T14:42:21.124Z,7.90
2018-12-21T14:44:47.457Z,7.80
2018-12-21T14:47:13.580Z,7.90
2018-12-21T14:49:40.833Z,7.90
2018-12-21T14:52:08.598Z,7.90
2018-12-21T14:54:34.984Z,7.60
2018-12-21T14:57:03.041Z,7.50
2018-12-21T14:59:29.553Z,7.50
2018-12-21T15:01:55.738Z,7.50
2018-12-21T15:04:23.864Z,7.40
2018-12-21T15:06:50.269Z,7.30
2018-12-21T15:09:16.398Z,7.40
2018-12-21T15:11:42.905Z,7.40
2018-12-21T15:14:08.994Z,7.20
2018-12-21T15:16:36.795Z,7.30
2018-12-21T15:19:03.898Z,7.30
2018-12-21T15:21:30.203Z,7.40
2018-12-21T15:23:56.613Z,7.50
2018-12-21T15:26:22.714Z,7.60
2018-12-21T15:28:49.736Z,7.70
2018-12-21T15:31:15.970Z,7.90
2018-12-21T15:33:42.707Z,8.00
2018-12-21T15:36:09.822Z,8.10
2018-12-21T15:38:35.920Z,8.30
2018-12-21T15:41:03.021Z,8.40
2018-12-21T15:43:29.717Z,8.40
2018-12-21T15:45:55.941Z,8.60
2018-12-21T15:48:22.055Z,8.50
2018-12-21T15:50:48.320Z,8.60
2018-12-21T15:53:15.459Z,8.60
2018-12-21T15:55:41.579Z,8.50
2018-12-21T15:58:07.745Z,8.60
2018-12-21T16:00:33.952Z,8.60
2018-12-21T16:03:00.646Z,8.60
2018-12-21T16:05:26.932Z,8.70
2018-12-21T16:07:54.663Z,8.60
2018-12-21T16:10:20.825Z,8.70
2018-12-21T16:12:47.056Z,8.80
2018-12-21T16:15:13.411Z,8.90
2018-12-21T16:17:39.566Z,9.10
2018-12-21T16:20:09.619Z,9.20
2018-12-21T16:22:42.345Z,9.20
2018-12-21T16:25:05.178Z,9.30
2018-12-21T16:27:31.289Z,9.30
2018-12-21T16:29:57.405Z,9.20
2018-12-21T16:32:23.560Z,9.20
2018-12-21T16:34:49.652Z,9.20
2018-12-21T16:37:15.807Z,9.20
2018-12-21T16:39:42.040Z,9.30
2018-12-21T16:42:08.803Z,9.40
2018-12-21T16:44:36.015Z,9.40
2018-12-21T16:47:02.450Z,9.60
2018-12-21T16:49:28.700Z,9.70
2018-12-21T16:51:55.233Z,9.80
2018-12-21T16:54:22.617Z,9.80
2018-12-21T16:56:48.830Z,9.90
2018-12-21T16:59:15.702Z,9.90
2018-12-21T17:01:42.709Z,10.00
2018-12-21T17:04:09.036Z,10.20
2018-12-21T17:06:37.462Z,10.20
2018-12-21T17:09:06.278Z,10.20
2018-12-21T17:11:32.461Z,10.20
2018-12-21T17:13:58.663Z,10.20
2018-12-21T17:16:24.907Z,10.20
2018-12-21T17:18:51.321Z,10.30
2018-12-21T17:21:17.529Z,10.30
2018-12-21T17:23:43.659Z,10.40
2018-12-21T17:26:09.835Z,10.50
2018-12-21T17:28:36.060Z,10.70
2018-12-21T17:31:02.403Z,10.70
2018-12-21T17:33:28.616Z,10.80
2018-12-21T17:35:54.764Z,10.80
2018-12-21T17:38:21.032Z,11.00
2018-12-21T17:40:48.259Z,11.00
2018-12-21T17:43:14.495Z,11.10
2018-12-21T17:45:41.623Z,11.20
2018-12-21T17:48:09.585Z,11.20
2018-12-21T17:50:37.525Z,11.40
2018-12-21T17:53:03.961Z,11.40
2018-12-21T17:55:30.746Z,11.50
2018-12-21T17:57:56.911Z,11.50
2018-12-21T18:00:23.290Z,11.50
2018-12-21T18:02:50.954Z,11.50
2018-12-21T18:05:18.975Z,11.50
2018-12-21T18:07:45.322Z,11.50
2018-12-21T18:10:11.620Z,11.50
2018-12-21T18:12:38.712Z,11.60
2018-12-21T18:15:07.554Z,11.50
2018-12-21T18:17:33.766Z,11.60
2018-12-21T18:20:00.921Z,11.70
2018-12-21T18:22:27.125Z,11.70
2018-12-21T18:24:53.620Z,11.70
2018-12-21T18:27:19.863Z,11.70
2018-12-21T18:29:47.374Z,11.80
2018-12-21T18:32:16.437Z,11.80
2018-12-21T18:34:42.545Z,11.80
2018-12-21T18:37:08.966Z,11.90
2018-12-21T18:39:35.130Z,11.80
2018-12-21T18:42:01.671Z,11.90
2018-12-21T18:44:28.038Z,11.90
2018-12-21T18:46:54.211Z,11.90
2018-12-21T18:49:21.213Z,11.90
2018-12-21T18:51:47.447Z,11.70
2018-12-21T18:57:13.884Z,11.80
2018-12-21T18:59:40.101Z,11.70
2018-12-21T19:02:06.447Z,11.70
2018-12-21T19:04:32.653Z,11.80
2018-12-21T19:06:59.772Z,11.70
2018-12-21T19:09:26.119Z,11.80
2018-12-21T19:11:52.337Z,11.70
2018-12-21T19:14:18.670Z,11.60
2018-12-21T19:16:44.940Z,11.60
2018-12-21T19:19:11.123Z,11.60
2018-12-21T19:21:37.426Z,11.70
2018-12-21T19:24:03.760Z,11.60
2018-12-21T19:26:30.849Z,11.60
2018-12-21T19:28:57.034Z,11.60
2018-12-21T19:31:23.485Z,11.60
2018-12-21T19:33:49.991Z,11.60
2018-12-21T19:36:16.236Z,11.60
2018-12-21T19:38:42.293Z,11.60
2018-12-21T19:41:09.260Z,11.60
2018-12-21T19:43:35.365Z,11.50
2018-12-21T19:46:01.710Z,11.50
2018-12-21T19:48:29.106Z,11.60
2018-12-21T19:50:55.320Z,11.50
2018-12-21T19:53:23.391Z,11.50
2018-12-21T19:55:49.929Z,11.60
2018-12-21T19:58:23.125Z,11.60
2018-12-21T20:00:49.260Z,11.60
2018-12-21T20:03:15.845Z,11.60
2018-12-21T20:05:42.957Z,11.70
2018-12-21T20:08:09.721Z,11.70
2018-12-21T20:10:36.656Z,11.80
2018-12-21T20:13:03.116Z,12.00
2018-12-21T20:15:29.380Z,12.10
2018-12-21T20:18:02.535Z,12.10
2018-12-21T20:20:28.977Z,12.10
2018-12-21T20:22:55.579Z,12.30
2018-12-21T20:25:21.923Z,12.30
2018-12-21T20:27:48.159Z,12.30
2018-12-21T20:30:16.037Z,12.20
2018-12-21T20:32:42.216Z,12.10
2018-12-21T20:35:08.789Z,12.10
2018-12-21T20:37:35.349Z,12.00
2018-12-21T20:40:05.123Z,11.90
2018-12-21T20:42:31.237Z,11.90
2018-12-21T20:44:57.330Z,12.00
2018-12-21T20:47:23.739Z,12.00
2018-12-21T20:49:50.148Z,12.10
2018-12-21T20:52:16.388Z,12.00
2018-12-21T20:54:42.630Z,12.00
2018-12-21T20:57:09.282Z,12.10
2018-12-21T20:59:36.171Z,12.20
2018-12-21T21:02:02.536Z,12.20
2018-12-21T21:04:28.680Z,12.20
2018-12-21T21:06:54.802Z,12.20
2018-12-21T21:09:21.015Z,12.10
2018-12-21T21:11:47.262Z,12.10
2018-12-21T21:14:13.553Z,12.00
2018-12-21T21:16:39.886Z,12.00
2018-12-21T21:19:06.078Z,11.90
2018-12-21T21:21:32.341Z,11.80
2018-12-21T21:23:58.486Z,11.70
2018-12-21T21:26:24.909Z,11.70
2018-12-21T21:28:51.093Z,11.70
2018-12-21T21:31:17.589Z,11.80
2018-12-21T21:33:43.887Z,11.90
2018-12-21T21:36:09.975Z,11.90
2018-12-21T21:38:36.183Z,11.80
2018-12-21T21:41:02.375Z,11.70
2018-12-21T21:43:28.735Z,11.70
2018-12-21T21:45:54.970Z,11.50
2018-12-21T21:48:21.065Z,11.50
2018-12-21T21:50:47.350Z,11.40
2018-12-21T21:53:13.466Z,11.40
2018-12-21T21:55:39.673Z,11.20
2018-12-21T21:58:05.793Z,11.10
2018-12-21T22:00:32.727Z,11.10
2018-12-21T22:02:59.060Z,11.10
2018-12-21T22:05:25.255Z,11.20
2018-12-21T22:07:51.391Z,11.30
2018-12-21T22:10:17.705Z,11.40
2018-12-21T22:12:43.897Z,11.30
2018-12-21T22:15:10.224Z,11.40
2018-12-21T22:17:36.390Z,11.50
2018-12-21T22:20:05.978Z,11.40
2018-12-21T22:22:39.129Z,11.50
2018-12-21T22:25:05.770Z,11.50
2018-12-21T22:27:32.968Z,11.50
2018-12-21T22:29:59.189Z,11.50
2018-12-21T22:32:25.385Z,11.50
2018-12-21T22:34:51.741Z,11.50
2018-12-21T22:37:17.964Z,11.50
2018-12-21T22:39:44.176Z,11.60
2018-12-21T22:42:10.341Z,11.50
2018-12-21T22:44:36.577Z,11.40
2018-12-21T22:47:03.123Z,11.40
2018-12-21T22:49:29.208Z,11.40
2018-12-21T22:51:55.402Z,11.30
2018-12-21T22:54:21.507Z,11.30
2018-12-21T22:56:47.578Z,11.20
2018-12-21T22:59:13.885Z,11.30
2018-12-21T23:01:40.088Z,11.20
2018-12-21T23:04:06.218Z,11.20
2018-12-21T23:06:32.356Z,11.30
2018-12-21T23:08:58.556Z,11.30
2018-12-21T23:11:25.180Z,11.40
2018-12-21T23:13:52.144Z,11.40
2018-12-21T23:16:18.365Z,11.40
2018-12-21T23:18:44.521Z,11.40
2018-12-21T23:21:10.749Z,11.30
2018-12-21T23:23:36.887Z,11.30
2018-12-21T23:26:03.095Z,11.20
2018-12-21T23:28:29.429Z,11.30
2018-12-21T23:30:55.523Z,11.30
2018-12-21T23:33:21.872Z,11.40
2018-12-21T23:35:48.088Z,11.40
2018-12-21T23:38:14.284Z,11.50
2018-12-21T23:40:40.602Z,11.50
2018-12-21T23:43:06.783Z,11.60
2018-12-21T23:45:32.916Z,11.60
2018-12-21T23:47:59.198Z,11.60
2018-12-21T23:50:25.478Z,11.60
2018-12-21T23:52:51.668Z,11.60
2018-12-21T23:55:17.796Z,11.50
2018-12-21T23:57:43.895Z,11.50
